createdAt,value
2018-09-16T00:01:24.049Z,57.88
2018-09-16T00:03:51.716Z,56.61
2018-09-16T00:06:19.414Z,56.99
2018-09-16T00:08:47.057Z,58.18
2018-09-16T00:11:14.736Z,58.67
2018-09-16T00:13:42.429Z,59.22
2018-09-16T00:16:10.105Z,59.53
2018-09-16T00:18:37.752Z,58.93
2018-09-16T00:21:05.467Z,58.67
2018-09-16T00:23:33.136Z,57.41
2018-09-16T00:26:00.760Z,57.43
2018-09-16T00:28:28.470Z,57.67
2018-09-16T00:30:56.136Z,57.80
2018-09-16T00:33:23.736Z,57.68
2018-09-16T00:35:51.440Z,58.30
2018-09-16T00:38:19.130Z,58.04
2018-09-16T00:40:46.770Z,59.21
2018-09-16T00:43:14.390Z,59.00
2018-09-16T00:45:42.142Z,59.64
2018-09-16T00:48:09.820Z,59.51
2018-09-16T00:50:37.531Z,59.75
2018-09-16T00:53:05.260Z,59.19
2018-09-16T00:55:32.908Z,59.64
2018-09-16T00:58:00.553Z,59.98
2018-09-16T01:00:28.431Z,60.16
2018-09-16T01:02:56.140Z,60.60
2018-09-16T01:05:23.902Z,61.00
2018-09-16T01:07:51.638Z,60.52
2018-09-16T01:10:19.378Z,60.63
2018-09-16T01:12:47.013Z,60.48
2018-09-16T01:15:14.670Z,61.03
2018-09-16T01:17:42.393Z,61.80
2018-09-16T01:20:10.227Z,60.89
2018-09-16T01:22:37.905Z,60.89
2018-09-16T01:25:05.889Z,61.41
2018-09-16T01:27:33.567Z,61.16
2018-09-16T01:30:01.286Z,62.06
2018-09-16T01:32:28.899Z,61.79
2018-09-16T01:34:56.763Z,62.23
2018-09-16T01:37:30.328Z,62.48
2018-09-16T01:39:57.990Z,63.15
2018-09-16T01:42:25.653Z,63.28
2018-09-16T01:44:53.353Z,63.97
2018-09-16T01:47:21.039Z,63.78
2018-09-16T01:49:48.629Z,63.50
2018-09-16T01:52:16.321Z,63.56
2018-09-16T01:54:44.001Z,64.12
2018-09-16T01:57:11.758Z,64.33
2018-09-16T01:59:39.451Z,64.57
2018-09-16T02:02:07.095Z,65.17
2018-09-16T02:04:43.482Z,65.55
2018-09-16T02:07:12.467Z,65.63
2018-09-16T02:09:40.179Z,65.56
2018-09-16T02:12:08.068Z,66.17
2018-09-16T02:14:35.729Z,66.02
2018-09-16T02:17:03.424Z,65.83
2018-09-16T02:19:31.088Z,66.11
2018-09-16T02:21:58.706Z,66.57
2018-09-16T02:24:26.360Z,66.71
2018-09-16T02:26:54.054Z,66.08
2018-09-16T02:29:21.820Z,67.07
2018-09-16T02:31:50.446Z,67.12
2018-09-16T02:34:18.106Z,66.87
2018-09-16T02:36:45.811Z,67.07
2018-09-16T02:39:13.571Z,66.97
2018-09-16T02:41:41.248Z,67.16
2018-09-16T02:44:09.012Z,67.67
2018-09-16T02:46:36.665Z,67.69
2018-09-16T02:49:04.331Z,67.97
2018-09-16T02:51:32.092Z,68.24
2018-09-16T02:53:59.760Z,67.77
2018-09-16T02:56:27.657Z,68.27
2018-09-16T02:58:55.351Z,68.08
2018-09-16T03:01:23.217Z,67.91
2018-09-16T03:03:50.910Z,68.40
2018-09-16T03:06:23.241Z,68.26
2018-09-16T03:08:50.998Z,68.43
2018-09-16T03:11:18.669Z,68.77
2018-09-16T03:13:46.379Z,68.32
2018-09-16T03:16:14.110Z,68.92
2018-09-16T03:18:41.765Z,68.76
2018-09-16T03:21:09.346Z,68.87
2018-09-16T03:23:37.014Z,69.02
2018-09-16T03:26:04.721Z,69.82
2018-09-16T03:28:32.420Z,70.03
2018-09-16T03:31:00.060Z,70.37
2018-09-16T03:33:27.741Z,70.30
2018-09-16T03:35:55.349Z,69.56
2018-09-16T03:38:23.030Z,69.76
2018-09-16T03:40:50.830Z,69.91
2018-09-16T03:43:18.541Z,69.57
2018-09-16T03:45:46.331Z,70.12
2018-09-16T03:48:14.019Z,69.65
2018-09-16T03:50:41.727Z,70.07
2018-09-16T03:53:09.422Z,69.63
2018-09-16T03:55:37.072Z,69.67
2018-09-16T03:58:04.877Z,70.19
2018-09-16T04:00:32.541Z,69.69
2018-09-16T04:03:00.213Z,69.36
2018-09-16T04:05:27.815Z,69.52
2018-09-16T04:07:55.445Z,69.07
2018-09-16T04:10:23.145Z,69.43
2018-09-16T04:12:50.903Z,69.34
2018-09-16T04:15:18.992Z,69.29
2018-09-16T04:17:46.747Z,70.13
2018-09-16T04:20:14.513Z,69.58
2018-09-16T04:22:42.251Z,69.51
2018-09-16T04:25:09.912Z,70.38
2018-09-16T04:27:37.594Z,69.49
2018-09-16T04:30:05.696Z,69.74
2018-09-16T04:32:33.396Z,69.96
2018-09-16T04:35:00.994Z,69.75
2018-09-16T04:37:28.626Z,69.89
2018-09-16T04:39:57.054Z,70.07
2018-09-16T04:42:24.740Z,69.46
2018-09-16T04:44:52.387Z,69.71
2018-09-16T04:47:20.116Z,69.62
2018-09-16T04:49:47.843Z,69.11
2018-09-16T04:52:15.557Z,69.55
2018-09-16T04:54:43.220Z,68.92
2018-09-16T04:57:10.905Z,68.98
2018-09-16T04:59:38.548Z,69.23
2018-09-16T05:02:06.311Z,69.03
2018-09-16T05:04:33.969Z,69.51
2018-09-16T05:07:01.543Z,69.72
2018-09-16T05:09:30.205Z,69.42
2018-09-16T05:11:57.845Z,69.29
2018-09-16T05:14:25.555Z,68.96
2018-09-16T05:16:53.210Z,68.70
2018-09-16T05:19:20.991Z,67.59
2018-09-16T05:21:48.685Z,67.73
2018-09-16T05:24:16.306Z,67.71
2018-09-16T05:26:44.538Z,67.02
2018-09-16T05:29:12.179Z,66.90
2018-09-16T05:31:39.955Z,66.96
2018-09-16T05:34:07.614Z,66.75
2018-09-16T05:36:35.427Z,66.58
2018-09-16T05:39:04.273Z,66.13
2018-09-16T05:41:31.925Z,65.54
2018-09-16T05:43:59.625Z,65.90
2018-09-16T05:46:27.302Z,65.39
2018-09-16T05:48:54.930Z,64.94
2018-09-16T05:51:22.580Z,64.81
2018-09-16T05:53:50.250Z,64.32
2018-09-16T05:56:18.069Z,63.51
2018-09-16T05:58:45.708Z,62.82
2018-09-16T06:01:13.378Z,63.01
2018-09-16T06:03:41.083Z,63.12
2018-09-16T06:06:08.786Z,62.26
2018-09-16T06:08:37.261Z,61.54
2018-09-16T06:11:05.610Z,61.33
2018-09-16T06:13:33.258Z,60.78
2018-09-16T06:16:00.870Z,60.49
2018-09-16T06:18:28.431Z,60.71
2018-09-16T06:20:56.066Z,60.35
2018-09-16T06:23:23.698Z,60.20
2018-09-16T06:25:51.336Z,59.67
2018-09-16T06:28:19.075Z,58.58
2018-09-16T06:30:46.772Z,58.11
2018-09-16T06:33:14.503Z,57.38
2018-09-16T06:35:42.122Z,56.56
2018-09-16T06:38:09.833Z,55.99
2018-09-16T06:40:37.489Z,56.14
2018-09-16T06:43:05.445Z,55.74
2018-09-16T06:45:33.418Z,54.95
2018-09-16T06:48:01.123Z,54.17
2018-09-16T06:50:28.914Z,52.70
2018-09-16T06:52:56.655Z,52.73
2018-09-16T06:55:24.361Z,52.48
2018-09-16T06:57:51.977Z,52.73
2018-09-16T07:00:19.563Z,51.64
2018-09-16T07:02:47.180Z,51.02
2018-09-16T07:05:14.945Z,50.63
2018-09-16T07:07:42.710Z,50.05
2018-09-16T07:10:10.394Z,50.78
2018-09-16T07:12:38.015Z,49.82
2018-09-16T07:15:05.827Z,49.03
2018-09-16T07:17:33.479Z,49.08
2018-09-16T07:20:01.145Z,48.46
2018-09-16T07:22:28.820Z,48.74
2018-09-16T07:24:56.451Z,49.15
2018-09-16T07:27:24.126Z,48.51
2018-09-16T07:29:51.728Z,47.76
2018-09-16T07:32:19.418Z,47.09
2018-09-16T07:34:47.126Z,45.96
2018-09-16T07:37:14.956Z,45.63
2018-09-16T07:39:42.587Z,45.09
2018-09-16T07:42:10.538Z,45.78
2018-09-16T07:44:38.240Z,44.46
2018-09-16T07:47:05.929Z,44.52
2018-09-16T07:49:33.561Z,44.17
2018-09-16T07:52:01.205Z,43.63
2018-09-16T07:54:28.974Z,44.59
2018-09-16T07:56:56.645Z,44.84
2018-09-16T07:59:24.316Z,44.70
2018-09-16T08:01:51.976Z,44.02
2018-09-16T08:04:19.666Z,43.97
2018-09-16T08:06:47.326Z,43.71
2018-09-16T08:09:15.066Z,43.93
2018-09-16T08:11:42.801Z,44.35
2018-09-16T08:14:10.514Z,45.11
2018-09-16T08:16:38.262Z,45.02
2018-09-16T08:19:06.782Z,44.67
2018-09-16T08:21:34.626Z,45.08
2018-09-16T08:24:02.306Z,43.91
2018-09-16T08:26:30.072Z,44.32
2018-09-16T08:28:57.740Z,43.85
2018-09-16T08:31:25.416Z,43.94
2018-09-16T08:33:53.109Z,44.68
2018-09-16T08:36:20.771Z,44.05
2018-09-16T08:38:48.423Z,44.29
2018-09-16T08:41:16.117Z,43.95
2018-09-16T08:43:43.865Z,43.94
2018-09-16T08:46:11.511Z,43.71
2018-09-16T08:48:39.331Z,44.21
2018-09-16T08:51:07.655Z,43.48
2018-09-16T08:53:35.344Z,42.91
2018-09-16T08:56:03.077Z,43.48
2018-09-16T08:58:31.113Z,43.45
2018-09-16T09:00:58.741Z,42.69
2018-09-16T09:03:26.435Z,42.06
2018-09-16T09:05:54.151Z,42.74
2018-09-16T09:08:21.853Z,41.39
2018-09-16T09:10:49.533Z,41.04
2018-09-16T09:13:17.154Z,40.92
2018-09-16T09:15:44.989Z,40.99
2018-09-16T09:18:13.022Z,41.00
2018-09-16T09:20:40.762Z,40.45
2018-09-16T09:23:08.472Z,40.09
2018-09-16T09:25:36.038Z,40.69
2018-09-16T09:28:03.762Z,40.95
2018-09-16T09:30:31.411Z,41.25
2018-09-16T09:32:59.108Z,41.12
2018-09-16T09:35:26.912Z,41.12
2018-09-16T09:37:54.574Z,40.29
2018-09-16T09:40:22.344Z,39.97
2018-09-16T09:42:50.054Z,40.56
2018-09-16T09:45:17.738Z,40.58
2018-09-16T09:47:45.454Z,40.18
2018-09-16T09:50:13.230Z,39.58
2018-09-16T09:52:40.864Z,39.81
2018-09-16T09:55:08.576Z,39.10
2018-09-16T09:57:36.225Z,39.39
2018-09-16T10:00:04.154Z,38.60
2018-09-16T10:02:31.851Z,38.56
2018-09-16T10:04:59.631Z,38.04
2018-09-16T10:07:27.749Z,38.65
2018-09-16T10:09:55.503Z,38.02
2018-09-16T10:12:23.749Z,38.28
2018-09-16T10:14:51.984Z,37.66
2018-09-16T10:17:20.359Z,37.11
2018-09-16T10:19:48.019Z,37.26
2018-09-16T10:22:15.752Z,36.30
2018-09-16T10:24:43.499Z,36.11
2018-09-16T10:27:11.524Z,35.16
2018-09-16T10:29:39.231Z,35.48
2018-09-16T10:32:06.898Z,34.43
2018-09-16T10:34:35.184Z,35.04
2018-09-16T10:37:02.826Z,34.42
2018-09-16T10:39:30.555Z,34.08
2018-09-16T10:41:59.139Z,33.62
2018-09-16T10:44:26.827Z,32.21
2018-09-16T10:46:54.552Z,31.55
2018-09-16T10:49:22.244Z,30.58
2018-09-16T10:51:49.962Z,31.04
2018-09-16T10:54:17.685Z,31.09
2018-09-16T10:56:45.600Z,29.81
2018-09-16T10:59:16.565Z,28.26
2018-09-16T11:01:44.649Z,28.44
2018-09-16T11:04:12.386Z,29.39
2018-09-16T11:06:40.013Z,29.91
2018-09-16T11:09:09.014Z,30.87
2018-09-16T11:11:36.636Z,29.64
2018-09-16T11:14:04.390Z,29.79
2018-09-16T11:16:32.103Z,29.37
2018-09-16T11:18:59.749Z,29.01
2018-09-16T11:21:27.340Z,29.16
2018-09-16T11:23:55.091Z,26.58
2018-09-16T11:26:22.888Z,25.29
2018-09-16T11:28:50.583Z,25.30
2018-09-16T11:31:18.686Z,25.85
2018-09-16T11:33:46.359Z,22.30
2018-09-16T11:36:14.849Z,19.21
2018-09-16T11:38:42.494Z,19.79
2018-09-16T11:41:10.145Z,18.41
2018-09-16T11:43:37.844Z,16.09
2018-09-16T11:46:05.526Z,12.50
2018-09-16T11:48:37.149Z,12.86
2018-09-16T11:51:05.183Z,12.57
2018-09-16T11:53:32.846Z,10.76
2018-09-16T11:56:00.482Z,10.15
2018-09-16T11:58:28.520Z,9.16
2018-09-16T12:00:56.208Z,9.04
2018-09-16T12:03:23.975Z,8.89
2018-09-16T12:05:51.709Z,8.63
2018-09-16T12:08:19.578Z,8.78
2018-09-16T12:10:47.265Z,9.63
2018-09-16T12:13:15.058Z,9.24
2018-09-16T12:15:42.803Z,8.48
2018-09-16T12:18:11.619Z,8.18
2018-09-16T12:20:41.674Z,8.00
2018-09-16T12:23:09.451Z,6.87
2018-09-16T12:25:37.228Z,7.36
2018-09-16T12:28:04.966Z,6.99
2018-09-16T12:30:32.850Z,7.66
2018-09-16T12:33:00.973Z,6.73
2018-09-16T12:35:28.705Z,6.79
2018-09-16T12:37:56.467Z,7.45
2018-09-16T12:40:24.159Z,7.06
2018-09-16T12:42:51.930Z,6.86
2018-09-16T12:45:19.651Z,8.49
2018-09-16T12:47:47.377Z,8.12
2018-09-16T12:50:15.034Z,6.56
2018-09-16T12:52:42.714Z,6.88
2018-09-16T12:55:10.383Z,6.84
2018-09-16T12:57:38.034Z,6.95
2018-09-16T13:00:05.910Z,7.80
2018-09-16T13:02:33.544Z,7.62
2018-09-16T13:05:01.328Z,6.78
2018-09-16T13:07:29.293Z,6.95
2018-09-16T13:09:56.967Z,8.21
2018-09-16T13:12:24.639Z,8.08
2018-09-16T13:14:52.408Z,9.19
2018-09-16T13:17:20.176Z,9.75
2018-09-16T13:19:47.934Z,10.33
2018-09-16T13:22:15.657Z,8.14
2018-09-16T13:24:43.369Z,7.88
2018-09-16T13:27:11.033Z,6.95
2018-09-16T13:29:38.775Z,7.07
2018-09-16T13:32:06.702Z,8.11
2018-09-16T13:34:34.358Z,7.43
2018-09-16T13:37:02.104Z,6.69
2018-09-16T13:39:29.729Z,6.25
2018-09-16T13:41:57.569Z,6.98
2018-09-16T13:44:25.254Z,6.85
2018-09-16T13:46:52.913Z,7.15
2018-09-16T13:49:20.585Z,7.88
2018-09-16T13:51:48.348Z,7.00
2018-09-16T13:54:16.007Z,7.23
2018-09-16T13:56:44.189Z,7.74
2018-09-16T13:59:11.973Z,6.75
2018-09-16T14:01:39.600Z,5.94
2018-09-16T14:04:07.289Z,6.40
2018-09-16T14:06:34.941Z,6.35
2018-09-16T14:09:02.699Z,6.41
2018-09-16T14:11:30.348Z,6.53
2018-09-16T14:13:57.962Z,7.30
2018-09-16T14:16:25.621Z,6.86
2018-09-16T14:18:53.304Z,6.33
2018-09-16T14:21:21.047Z,6.62
2018-09-16T14:23:48.709Z,5.94
2018-09-16T14:26:16.404Z,7.28
2018-09-16T14:28:44.108Z,7.30
2018-09-16T14:31:11.752Z,7.51
2018-09-16T14:33:39.458Z,6.97
2018-09-16T14:36:07.107Z,6.13
2018-09-16T14:38:34.804Z,5.58
2018-09-16T14:41:02.467Z,6.85
2018-09-16T14:43:30.074Z,7.82
2018-09-16T14:45:57.749Z,8.42
2018-09-16T14:48:25.452Z,7.77
2018-09-16T14:50:53.122Z,8.33
2018-09-16T14:53:20.705Z,8.78
2018-09-16T14:55:48.396Z,7.82
2018-09-16T14:58:16.090Z,7.41
2018-09-16T15:00:43.847Z,6.95
2018-09-16T15:03:11.517Z,6.65
2018-09-16T15:05:39.148Z,7.50
2018-09-16T15:08:06.882Z,7.51
2018-09-16T15:10:34.667Z,7.00
2018-09-16T15:13:02.344Z,7.38
2018-09-16T15:15:30.030Z,7.28
2018-09-16T15:17:57.668Z,7.66
2018-09-16T15:20:25.343Z,7.39
2018-09-16T15:22:53.064Z,8.24
2018-09-16T15:25:20.771Z,8.75
2018-09-16T15:27:48.431Z,8.12
2018-09-16T15:30:16.186Z,8.33
2018-09-16T15:32:43.827Z,8.29
2018-09-16T15:35:11.477Z,8.07
2018-09-16T15:37:39.185Z,8.25
2018-09-16T15:40:06.913Z,9.30
2018-09-16T15:42:34.741Z,10.22
2018-09-16T15:45:09.187Z,10.33
2018-09-16T15:47:36.763Z,11.14
2018-09-16T15:50:04.925Z,10.99
2018-09-16T15:52:32.735Z,11.77
2018-09-16T15:55:00.593Z,12.67
2018-09-16T16:00:02.721Z,15.20
2018-09-16T16:02:30.386Z,15.96
2018-09-16T16:04:58.118Z,17.91
2018-09-16T16:07:25.824Z,18.47
2018-09-16T16:09:53.606Z,19.99
2018-09-16T16:12:21.355Z,19.58
2018-09-16T16:14:49.223Z,20.81
2018-09-16T16:17:16.958Z,20.58
2018-09-16T16:19:44.645Z,21.22
2018-09-16T16:22:12.411Z,21.83
2018-09-16T16:24:40.109Z,22.08
2018-09-16T16:27:07.773Z,22.59
2018-09-16T16:29:35.942Z,22.58
2018-09-16T16:32:03.681Z,23.41
2018-09-16T16:34:31.369Z,24.29
2018-09-16T16:36:59.061Z,25.08
2018-09-16T16:39:27.216Z,25.65
2018-09-16T16:41:54.917Z,26.71
2018-09-16T16:44:22.643Z,26.57
2018-09-16T16:46:50.401Z,26.78
2018-09-16T16:49:18.143Z,28.18
2018-09-16T16:51:45.850Z,28.00
2018-09-16T16:54:13.679Z,29.64
2018-09-16T16:56:41.428Z,28.81
2018-09-16T16:59:09.204Z,29.33
2018-09-16T17:01:36.850Z,29.17
2018-09-16T17:04:04.638Z,29.76
2018-09-16T17:06:32.294Z,30.63
2018-09-16T17:08:59.904Z,31.81
2018-09-16T17:11:27.634Z,32.15
2018-09-16T17:13:55.322Z,33.11
2018-09-16T17:16:22.938Z,33.18
2018-09-16T17:18:50.693Z,33.67
2018-09-16T17:21:18.378Z,34.50
2018-09-16T17:23:46.099Z,34.90
2018-09-16T17:26:13.742Z,35.20
2018-09-16T17:28:41.374Z,35.13
2018-09-16T17:31:09.280Z,35.51
2018-09-16T17:33:36.979Z,35.89
2018-09-16T17:36:04.666Z,36.65
2018-09-16T17:38:32.410Z,36.85
2018-09-16T17:41:00.112Z,36.97
2018-09-16T17:43:27.724Z,37.18
2018-09-16T17:45:55.446Z,37.34
2018-09-16T17:48:23.164Z,37.72
2018-09-16T17:50:50.841Z,38.06
2018-09-16T17:53:18.649Z,38.23
2018-09-16T17:55:46.434Z,38.58
2018-09-16T17:58:14.098Z,38.60
2018-09-16T18:00:41.890Z,38.15
2018-09-16T18:03:09.718Z,38.80
2018-09-16T18:05:37.388Z,38.99
2018-09-16T18:08:05.288Z,38.29
2018-09-16T18:10:32.987Z,38.52
2018-09-16T18:13:00.774Z,39.03
2018-09-16T18:15:28.426Z,38.59
2018-09-16T18:17:56.139Z,39.54
2018-09-16T18:20:24.132Z,38.84
2018-09-16T18:22:51.918Z,39.32
2018-09-16T18:25:19.946Z,39.17
2018-09-16T18:27:47.894Z,38.95
2018-09-16T18:30:15.772Z,39.24
2018-09-16T18:35:21.147Z,39.22
2018-09-16T18:37:48.889Z,39.74
2018-09-16T18:40:16.874Z,40.01
2018-09-16T18:42:45.068Z,40.30
2018-09-16T18:45:12.874Z,39.64
2018-09-16T18:47:40.600Z,40.84
2018-09-16T18:50:08.703Z,40.88
2018-09-16T18:52:36.439Z,40.37
2018-09-16T18:55:04.330Z,41.22
2018-09-16T18:57:32.024Z,41.42
2018-09-16T19:00:00.025Z,41.28
2018-09-16T19:02:27.725Z,41.99
2018-09-16T19:04:55.514Z,42.49
2018-09-16T19:07:23.584Z,42.22
2018-09-16T19:09:51.412Z,43.03
2018-09-16T19:12:19.282Z,44.66
2018-09-16T19:14:47.144Z,44.49
2018-09-16T19:17:15.056Z,44.60
2018-09-16T19:19:43.294Z,45.57
2018-09-16T19:22:11.013Z,45.35
2018-09-16T19:24:38.764Z,46.05
2018-09-16T19:27:07.444Z,46.09
2018-09-16T19:29:35.596Z,45.37
2018-09-16T19:32:03.556Z,46.92
2018-09-16T19:34:31.382Z,47.46
2018-09-16T19:36:59.169Z,46.95
2018-09-16T19:39:27.420Z,46.56
2018-09-16T19:41:55.574Z,47.42
2018-09-16T19:44:23.627Z,47.42
2018-09-16T19:46:51.585Z,47.51
2018-09-16T19:49:19.406Z,48.17
2018-09-16T19:51:47.302Z,48.59
2018-09-16T19:54:15.448Z,48.91
2018-09-16T19:56:43.492Z,48.95
2018-09-16T19:59:11.833Z,49.38
2018-09-16T20:01:40.653Z,49.82
2018-09-16T20:04:10.493Z,50.03
2018-09-16T20:06:38.722Z,49.96
2018-09-16T20:09:09.439Z,49.51
2018-09-16T20:11:37.146Z,49.55
2018-09-16T20:14:05.034Z,49.52
2018-09-16T20:16:33.093Z,50.43
2018-09-16T20:19:00.972Z,49.54
2018-09-16T20:21:28.949Z,51.21
2018-09-16T20:23:56.674Z,50.27
2018-09-16T20:26:24.870Z,51.02
2018-09-16T20:28:52.646Z,50.84
2018-09-16T20:31:20.445Z,51.12
2018-09-16T20:33:48.495Z,50.82
2018-09-16T20:36:16.322Z,50.96
2018-09-16T20:38:44.350Z,51.11
2018-09-16T20:41:16.642Z,51.68
2018-09-16T20:43:44.431Z,51.60
2018-09-16T20:46:12.170Z,52.37
2018-09-16T20:48:39.927Z,52.54
2018-09-16T20:51:07.591Z,52.94
2018-09-16T20:53:35.318Z,52.59
2018-09-16T20:56:03.045Z,53.10
2018-09-16T20:58:30.852Z,53.57
2018-09-16T21:00:58.688Z,54.46
2018-09-16T21:03:26.385Z,53.87
2018-09-16T21:05:54.109Z,54.75
2018-09-16T21:08:21.760Z,54.82
2018-09-16T21:10:49.492Z,56.13
2018-09-16T21:13:17.907Z,55.52
2018-09-16T21:15:45.739Z,55.93
2018-09-16T21:18:13.743Z,56.64
2018-09-16T21:20:41.430Z,57.08
2018-09-16T21:23:09.145Z,57.27
2018-09-16T21:25:37.006Z,57.57
2018-09-16T21:28:04.753Z,57.54
2018-09-16T21:30:32.413Z,57.64
2018-09-16T21:33:00.331Z,58.64
2018-09-16T21:35:27.987Z,58.39
2018-09-16T21:37:55.647Z,58.27
2018-09-16T21:40:23.311Z,58.89
2018-09-16T21:42:50.996Z,58.60
2018-09-16T21:45:18.806Z,58.99
2018-09-16T21:47:46.545Z,59.16
2018-09-16T21:50:14.219Z,58.63
2018-09-16T21:52:41.936Z,58.94
2018-09-16T21:55:09.589Z,58.72
2018-09-16T21:57:37.293Z,59.11
2018-09-16T22:00:06.289Z,58.63
2018-09-16T22:02:33.955Z,58.87
2018-09-16T22:05:02.070Z,59.08
2018-09-16T22:07:29.762Z,58.84
2018-09-16T22:09:57.551Z,58.82
2018-09-16T22:12:25.174Z,59.24
2018-09-16T22:14:52.846Z,58.90
2018-09-16T22:17:20.579Z,59.42
2018-09-16T22:19:48.220Z,59.36
2018-09-16T22:22:15.854Z,59.36
2018-09-16T22:24:43.494Z,59.36
2018-09-16T22:27:11.090Z,59.22
2018-09-16T22:29:38.748Z,59.33
2018-09-16T22:32:06.380Z,59.95
2018-09-16T22:34:34.026Z,59.50
2018-09-16T22:37:01.689Z,59.39
2018-09-16T22:39:29.354Z,59.84
2018-09-16T22:41:56.970Z,60.01
2018-09-16T22:44:24.578Z,59.70
2018-09-16T22:46:52.201Z,59.81
2018-09-16T22:49:19.828Z,60.53
2018-09-16T22:51:47.838Z,60.04
2018-09-16T22:54:15.566Z,60.94
2018-09-16T22:56:43.211Z,61.37
2018-09-16T22:59:10.849Z,61.29
2018-09-16T23:01:38.498Z,61.39
2018-09-16T23:04:06.211Z,61.49
2018-09-16T23:06:33.886Z,61.65
2018-09-16T23:09:07.265Z,61.44
2018-09-16T23:11:34.870Z,62.00
2018-09-16T23:14:02.604Z,61.58
2018-09-16T23:16:30.248Z,61.64
2018-09-16T23:18:58.000Z,62.16
2018-09-16T23:21:25.573Z,62.32
2018-09-16T23:23:53.228Z,62.50
2018-09-16T23:26:21.821Z,62.57
2018-09-16T23:28:49.603Z,62.42
2018-09-16T23:31:17.297Z,63.16
2018-09-16T23:33:45.030Z,63.02
2018-09-16T23:36:13.065Z,63.91
2018-09-16T23:38:40.769Z,63.96
2018-09-16T23:41:08.493Z,63.84
2018-09-16T23:43:36.182Z,64.61
2018-09-16T23:46:03.857Z,64.59
2018-09-16T23:48:31.545Z,63.80
2018-09-16T23:50:59.255Z,63.56
2018-09-16T23:53:26.906Z,64.33
2018-09-16T23:55:54.547Z,64.56
2018-09-16T23:58:22.175Z,64.10
